Terminal Aerodrome Forecast
Issued by NWS Duluth, MN

Home | Current Version | Previous Version | Text Only | Print | Product List | Glossary On
Versions: 1 2 3 4 5 6 7 8 9 10 11 12 13 14 15 16 17 18 19 20 21
000
FTUS43 KDLH 281132
TAFINL
TAF
KINL 281132Z 2812/2912 14011KT P6SM VCSH BKN100
      TEMPO 2813/2815 -TSRA BKN014CB
     FM281500 16011KT P6SM VCSH OVC100
     FM281800 18012G20KT P6SM VCTS BKN100CB
      TEMPO 2818/2822 4SM TSRA OVC050CB
     FM290200 23012KT P6SM VCSH BKN100=

USA.gov is the U.S. government's official web portal to all federal, state and local government web resources and services.